Fairwind — 3EIH2 — position and weather

sailwx.info

Track history (hours):
 
Tides and Currents Weather Stations Pressure Air Temp Water Temp Dewpoint Dewpoint Depression Visibility Wind Speed Wind Dir Waves Ship Positions

Fairwind

Last reported at 2018-Jul-17 13:05 UTC. Time now 2018-Jul-21 07:48 UTC.
Position N 22°44' E 120°08'.

Length 84 m; draft 6.2 m.

Type: Cargo ship. MMSI: 372180000.

Date/timePositionNaut miles runAvg speedWind from/ knotsBaromVisibWave heightAir tempDewpointWater temp
2018-Jul-17 13:05N 22°44' E 120°08'1 9.7
2018-Jul-17 13:00N 22°43' E 120°09'5 9.4
2018-Jul-17 12:30N 22°39' E 120°11'5 9.5
2018-Jul-17 12:00N 22°37' E 120°16'2 3.8
2018-Jul-17 11:30N 22°36' E 120°17'0 0.0
2018-Jul-17 10:59N 22°36' E 120°17'0 0.0
2018-Jul-17 10:29N 22°36' E 120°17'0 0.0
2018-Jul-17 09:59N 22°36' E 120°17'0 0.0
2018-Jul-17 09:23N 22°36' E 120°17'0 0.0
2018-Jul-17 08:59N 22°36' E 120°17'0 0.0
2018-Jul-17 08:29N 22°36' E 120°17'0 0.0
2018-Jul-17 07:59N 22°36' E 120°17'0 0.0
2018-Jul-17 07:29N 22°36' E 120°17'0 0.0
2018-Jul-17 06:59N 22°36' E 120°17'0 0.0
2018-Jul-17 06:23N 22°36' E 120°17'0 0.0
2018-Jul-17 05:53N 22°36' E 120°17'0 0.0
2018-Jul-17 05:29N 22°36' E 120°17'0 0.0
2018-Jul-17 04:59N 22°36' E 120°17'0 0.0
2018-Jul-17 04:29N 22°36' E 120°17'0 0.0
2018-Jul-17 03:59N 22°36' E 120°17'0 0.0
2018-Jul-17 03:29N 22°36' E 120°17'0 0.0
2018-Jul-17 02:53N 22°36' E 120°17'0 0.0
2018-Jul-17 02:29N 22°36' E 120°17'0 0.0
2018-Jul-17 01:59N 22°36' E 120°17'0 0.0
2018-Jul-17 01:29N 22°36' E 120°17'0 0.0
2018-Jul-17 00:59N 22°36' E 120°17'0 0.0
2018-Jul-17 00:29N 22°36' E 120°17'0 0.0
2018-Jul-16 23:29N 22°36' E 120°17'0 0.0
2018-Jul-16 17:17N 22°36' E 120°17'0 0.0
2018-Jul-16 16:53N 22°36' E 120°17'0 0.0
2018-Jul-16 13:29N 22°36' E 120°17'0 0.0
2018-Jul-16 12:53N 22°36' E 120°17'0 0.0
2018-Jul-16 12:29N 22°36' E 120°17'0 0.0
2018-Jul-16 11:59N 22°36' E 120°17'0 0.0
2018-Jul-16 11:29N 22°36' E 120°17'0 0.0
2018-Jul-16 10:35N 22°36' E 120°17'0 0.0
2018-Jul-16 10:23N 22°36' E 120°17'0 0.0
2018-Jul-16 09:59N 22°36' E 120°17'0 0.0
2018-Jul-16 09:23N 22°36' E 120°17'0 0.0
2018-Jul-16 08:59N 22°36' E 120°17'0 0.0
2018-Jul-16 08:29N 22°36' E 120°17'0 0.0
2018-Jul-16 07:59N 22°36' E 120°17'0 0.0
2018-Jul-16 07:29N 22°36' E 120°17'0 0.0
2018-Jul-16 06:59N 22°36' E 120°17'0 0.0
2018-Jul-16 06:29N 22°36' E 120°17'0 0.0
2018-Jul-16 05:53N 22°36' E 120°17'0 0.0
2018-Jul-16 05:23N 22°36' E 120°17'0 0.0
2018-Jul-16 05:00N 22°36' E 120°17'2 4.8
2018-Jul-16 04:30N 22°37' E 120°15'1 1.5
2018-Jul-16 03:58N 22°36' E 120°15'0 0.0
2018-Jul-16 03:28N 22°36' E 120°15'0 0.0
2018-Jul-16 02:58N 22°36' E 120°15'0 0.0
2018-Jul-16 02:28N 22°36' E 120°15'0 0.0
2018-Jul-16 01:58N 22°36' E 120°15'0 0.1
2018-Jul-16 01:28N 22°36' E 120°15'0 0.1
2018-Jul-16 00:58N 22°36' E 120°15'0 0.1
2018-Jul-16 00:28N 22°36' E 120°15'0 0.0
2018-Jul-15 23:58N 22°36' E 120°15'0 0.0
2018-Jul-15 23:22N 22°36' E 120°15'0 0.0
2018-Jul-15 22:58N 22°36' E 120°15'0 0.0
2018-Jul-15 22:28N 22°36' E 120°15'0 0.0
2018-Jul-15 21:58N 22°36' E 120°15'0 0.0
2018-Jul-15 21:28N 22°36' E 120°15'0 0.1
2018-Jul-15 20:58N 22°36' E 120°15'0 0.0
2018-Jul-15 20:28N 22°36' E 120°15'0 0.0
2018-Jul-15 19:52N 22°36' E 120°15'0 0.0
2018-Jul-15 19:28N 22°36' E 120°15'0 0.0
2018-Jul-15 18:58N 22°36' E 120°15'0 0.0
2018-Jul-15 18:28N 22°36' E 120°15'0 0.0
2018-Jul-15 17:58N 22°36' E 120°15'0 0.1
2018-Jul-15 17:28N 22°36' E 120°15'0 0.0
2018-Jul-15 16:58N 22°36' E 120°15'0 0.0
2018-Jul-15 16:28N 22°36' E 120°15'0 0.1
2018-Jul-15 15:58N 22°36' E 120°15'0 0.1
2018-Jul-15 15:28N 22°36' E 120°15'0 0.1
2018-Jul-15 14:58N 22°36' E 120°15'0 0.0
2018-Jul-15 14:22N 22°36' E 120°15'0 0.0
2018-Jul-15 13:59N 22°36' E 120°15'0 0.0
2018-Jul-15 13:28N 22°36' E 120°15'0 0.1
2018-Jul-15 12:58N 22°36' E 120°15'0 1.0
2018-Jul-15 12:30N 22°36' E 120°15'4 8.1
2018-Jul-15 12:00N 22°38' E 120°11'5 9.8
2018-Jul-15 11:30N 22°42' E 120°08'610.8
2018-Jul-15 10:59N 22°47' E 120°05'  
Track history (hours):
 
Tides and Currents Weather Stations Pressure Air Temp Water Temp Dewpoint Dewpoint Depression Visibility Wind Speed Wind Dir Waves Ship Positions

Fairwind

Last reported at 2018-Jul-17 13:05 UTC. Time now 2018-Jul-21 07:48 UTC.
Position N 22°44' E 120°08'.

Length 84 m; draft 6.2 m.

Type: Cargo ship. MMSI: 372180000.

Date/timePositionNaut miles runAvg speedWind from/ knotsBaromVisibWave heightAir tempDewpointWater temp
2018-Jul-17 13:05N 22°44' E 120°08'1 9.7
2018-Jul-17 13:00N 22°43' E 120°09'5 9.4
2018-Jul-17 12:30N 22°39' E 120°11'5 9.5
2018-Jul-17 12:00N 22°37' E 120°16'2 3.8
2018-Jul-17 11:30N 22°36' E 120°17'0 0.0
2018-Jul-17 10:59N 22°36' E 120°17'0 0.0
2018-Jul-17 10:29N 22°36' E 120°17'0 0.0
2018-Jul-17 09:59N 22°36' E 120°17'0 0.0
2018-Jul-17 09:23N 22°36' E 120°17'0 0.0
2018-Jul-17 08:59N 22°36' E 120°17'0 0.0
2018-Jul-17 08:29N 22°36' E 120°17'0 0.0
2018-Jul-17 07:59N 22°36' E 120°17'0 0.0
2018-Jul-17 07:29N 22°36' E 120°17'0 0.0
2018-Jul-17 06:59N 22°36' E 120°17'0 0.0
2018-Jul-17 06:23N 22°36' E 120°17'0 0.0
2018-Jul-17 05:53N 22°36' E 120°17'0 0.0
2018-Jul-17 05:29N 22°36' E 120°17'0 0.0
2018-Jul-17 04:59N 22°36' E 120°17'0 0.0
2018-Jul-17 04:29N 22°36' E 120°17'0 0.0
2018-Jul-17 03:59N 22°36' E 120°17'0 0.0
2018-Jul-17 03:29N 22°36' E 120°17'0 0.0
2018-Jul-17 02:53N 22°36' E 120°17'0 0.0
2018-Jul-17 02:29N 22°36' E 120°17'0 0.0
2018-Jul-17 01:59N 22°36' E 120°17'0 0.0
2018-Jul-17 01:29N 22°36' E 120°17'0 0.0
2018-Jul-17 00:59N 22°36' E 120°17'0 0.0
2018-Jul-17 00:29N 22°36' E 120°17'0 0.0
2018-Jul-16 23:29N 22°36' E 120°17'0 0.0
2018-Jul-16 17:17N 22°36' E 120°17'0 0.0
2018-Jul-16 16:53N 22°36' E 120°17'0 0.0
2018-Jul-16 13:29N 22°36' E 120°17'0 0.0
2018-Jul-16 12:53N 22°36' E 120°17'0 0.0
2018-Jul-16 12:29N 22°36' E 120°17'0 0.0
2018-Jul-16 11:59N 22°36' E 120°17'0 0.0
2018-Jul-16 11:29N 22°36' E 120°17'0 0.0
2018-Jul-16 10:35N 22°36' E 120°17'0 0.0
2018-Jul-16 10:23N 22°36' E 120°17'0 0.0
2018-Jul-16 09:59N 22°36' E 120°17'0 0.0
2018-Jul-16 09:23N 22°36' E 120°17'0 0.0
2018-Jul-16 08:59N 22°36' E 120°17'0 0.0
2018-Jul-16 08:29N 22°36' E 120°17'0 0.0
2018-Jul-16 07:59N 22°36' E 120°17'0 0.0
2018-Jul-16 07:29N 22°36' E 120°17'0 0.0
2018-Jul-16 06:59N 22°36' E 120°17'0 0.0
2018-Jul-16 06:29N 22°36' E 120°17'0 0.0
2018-Jul-16 05:53N 22°36' E 120°17'0 0.0
2018-Jul-16 05:23N 22°36' E 120°17'0 0.0
2018-Jul-16 05:00N 22°36' E 120°17'2 4.8
2018-Jul-16 04:30N 22°37' E 120°15'1 1.5
2018-Jul-16 03:58N 22°36' E 120°15'0 0.0
2018-Jul-16 03:28N 22°36' E 120°15'0 0.0
2018-Jul-16 02:58N 22°36' E 120°15'0 0.0
2018-Jul-16 02:28N 22°36' E 120°15'0 0.0
2018-Jul-16 01:58N 22°36' E 120°15'0 0.1
2018-Jul-16 01:28N 22°36' E 120°15'0 0.1
2018-Jul-16 00:58N 22°36' E 120°15'0 0.1
2018-Jul-16 00:28N 22°36' E 120°15'0 0.0
2018-Jul-15 23:58N 22°36' E 120°15'0 0.0
2018-Jul-15 23:22N 22°36' E 120°15'0 0.0
2018-Jul-15 22:58N 22°36' E 120°15'0 0.0
2018-Jul-15 22:28N 22°36' E 120°15'0 0.0
2018-Jul-15 21:58N 22°36' E 120°15'0 0.0
2018-Jul-15 21:28N 22°36' E 120°15'0 0.1
2018-Jul-15 20:58N 22°36' E 120°15'0 0.0
2018-Jul-15 20:28N 22°36' E 120°15'0 0.0
2018-Jul-15 19:52N 22°36' E 120°15'0 0.0
2018-Jul-15 19:28N 22°36' E 120°15'0 0.0
2018-Jul-15 18:58N 22°36' E 120°15'0 0.0
2018-Jul-15 18:28N 22°36' E 120°15'0 0.0
2018-Jul-15 17:58N 22°36' E 120°15'0 0.1
2018-Jul-15 17:28N 22°36' E 120°15'0 0.0
2018-Jul-15 16:58N 22°36' E 120°15'0 0.0
2018-Jul-15 16:28N 22°36' E 120°15'0 0.1
2018-Jul-15 15:58N 22°36' E 120°15'0 0.1
2018-Jul-15 15:28N 22°36' E 120°15'0 0.1
2018-Jul-15 14:58N 22°36' E 120°15'0 0.0
2018-Jul-15 14:22N 22°36' E 120°15'0 0.0
2018-Jul-15 13:59N 22°36' E 120°15'0 0.0
2018-Jul-15 13:28N 22°36' E 120°15'0 0.1
2018-Jul-15 12:58N 22°36' E 120°15'0 1.0
2018-Jul-15 12:30N 22°36' E 120°15'4 8.1
2018-Jul-15 12:00N 22°38' E 120°11'5 9.8
2018-Jul-15 11:30N 22°42' E 120°08'610.8
2018-Jul-15 10:59N 22°47' E 120°05'  

Dump ship's entire track history